Time;durP1;ratioP1;P1;durP2;ratioP2;P2;SDS_P1;SDS_P2;PMS_P1;PMS_P2;Temp;Humidity;BMP_temperature;BMP_pressure;BME280_temperature;BME280_humidity;BME280_pressure;Samples;Min_cycle;Max_cycle;Signal;HPM_P1;HPM_P2
2021/12/17 00:05:06;;;;;;;19.50;11.90;;;8.50;99.90;;;9.17;100.00;100258.84;5038101;28;20465;-80
2021/12/17 00:07:38;;;;;;;25.37;12.50;;;8.50;99.90;;;9.16;100.00;100246.75;5036160;28;20477;-80
2021/12/17 00:10:14;;;;;;;26.53;11.90;;;8.50;99.90;;;9.16;100.00;100247.59;5044178;28;20529;-80
2021/12/17 00:12:45;;;;;;;17.90;9.93;;;8.50;99.90;;;9.19;100.00;100247.34;5043186;28;20539;-80
2021/12/17 00:15:16;;;;;;;26.80;11.80;;;8.60;99.90;;;9.16;100.00;100242.38;5047722;28;20491;-80
2021/12/17 00:17:54;;;;;;;21.87;12.03;;;8.60;99.90;;;9.12;100.00;100250.56;5047571;28;20556;-79
2021/12/17 00:20:54;;;;;;;21.67;11.00;;;8.50;99.90;;;9.14;100.00;100253.88;5039405;28;20488;-80
2021/12/17 00:43:49;;;;;;;11.33;7.10;;;8.40;99.90;;;9.10;100.00;100248.06;5049567;28;20525;-80
2021/12/17 00:48:54;;;;;;;14.27;8.73;;;8.40;99.90;;;9.09;100.00;100243.81;5047129;28;20513;-80
2021/12/17 00:51:57;;;;;;;10.27;7.60;;;8.50;99.90;;;9.09;100.00;100246.44;5049564;28;20876;-80
2021/12/17 00:54:46;;;;;;;13.53;8.97;;;8.50;99.90;;;9.07;100.00;100237.88;5048038;28;20460;-80
2021/12/17 00:57:22;;;;;;;14.30;9.30;;;8.40;99.90;;;9.07;100.00;100243.09;5052648;28;20464;-80
2021/12/17 00:59:55;;;;;;;14.80;8.20;;;8.40;99.90;;;9.06;100.00;100244.88;5050743;28;20905;-80
2021/12/17 01:02:32;;;;;;;13.83;7.70;;;8.30;99.90;;;9.06;100.00;100237.03;5046408;28;20954;-80
2021/12/17 01:05:10;;;;;;;12.77;7.50;;;8.30;99.90;;;9.07;100.00;100230.06;5052694;28;20885;-80
2021/12/17 01:07:46;;;;;;;15.03;8.50;;;8.40;99.90;;;9.05;100.00;100232.81;5048243;28;20460;-80
2021/12/17 01:10:23;;;;;;;12.03;7.00;;;8.40;99.90;;;9.07;100.00;100232.66;5050553;28;20491;-80
2021/12/17 01:12:52;;;;;;;14.00;7.53;;;8.40;99.90;;;9.05;100.00;100227.59;5034943;28;20487;-79
2021/12/17 01:15:24;;;;;;;9.53;6.20;;;8.40;99.90;;;9.04;100.00;100222.47;5041700;28;20471;-80
2021/12/17 01:17:58;;;;;;;7.30;5.33;;;8.40;99.90;;;9.04;100.00;100225.09;5057507;28;20444;-80
2021/12/17 01:20:49;;;;;;;8.90;5.73;;;8.30;99.90;;;9.01;100.00;100231.38;5046278;28;20599;-80
2021/12/17 01:23:57;;;;;;;6.10;4.03;;;8.30;99.90;;;8.98;100.00;100226.41;5050667;28;20497;-80
2021/12/17 01:41:03;;;;;;;8.77;4.63;;;8.20;99.90;;;8.97;100.00;100221.31;5052413;28;20481;-80
2021/12/17 01:43:41;;;;;;;5.67;3.77;;;8.20;99.90;;;8.96;100.00;100224.84;5048751;28;20504;-80
2021/12/17 01:46:14;;;;;;;7.90;4.77;;;8.10;99.90;;;8.94;100.00;100221.56;5053326;28;20509;-79
2021/12/17 01:49:00;;;;;;;6.43;4.43;;;8.10;99.90;;;8.94;100.00;100227.59;5046053;28;20541;-80
2021/12/17 02:00:14;;;;;;;8.47;5.40;;;8.10;99.90;;;8.96;100.00;100227.47;5050151;28;20527;-80
2021/12/17 02:02:49;;;;;;;8.83;6.47;;;8.20;99.90;;;8.99;100.00;100224.59;5048965;28;20469;-80
2021/12/17 02:05:20;;;;;;;11.50;6.03;;;8.20;99.90;;;8.98;100.00;100225.59;5052180;28;20455;-80
2021/12/17 02:07:53;;;;;;;11.87;6.20;;;8.30;99.90;;;8.96;100.00;100235.28;5052633;28;20503;-80
2021/12/17 02:30:48;;;;;;;7.53;5.40;;;8.20;99.90;;;8.95;100.00;100212.78;5009951;28;20459;-80
2021/12/17 02:33:20;;;;;;;7.00;4.70;;;8.10;99.90;;;8.95;100.00;100208.41;5044146;28;20470;-80
2021/12/17 02:35:49;;;;;;;11.20;5.87;;;8.20;99.90;;;8.94;100.00;100211.94;5052288;28;20953;-80
2021/12/17 02:38:23;;;;;;;7.80;5.27;;;8.20;99.90;;;8.95;100.00;100218.84;5043627;28;20461;-80
2021/12/17 02:46:28;;;;;;;9.93;5.60;;;8.10;99.90;;;8.93;100.00;100205.06;5054119;28;20460;-80
2021/12/17 02:48:58;;;;;;;10.20;5.03;;;8.10;99.90;;;8.93;100.00;100212.91;5039866;28;20817;-79
2021/12/17 02:51:28;;;;;;;14.63;5.90;;;8.10;99.90;;;8.90;100.00;100202.72;5043788;28;20461;-80
2021/12/17 02:54:01;;;;;;;7.10;4.70;;;8.10;99.90;;;8.91;100.00;100200.94;5045431;28;20474;-80
2021/12/17 02:56:32;;;;;;;8.23;5.60;;;8.10;99.90;;;8.83;100.00;100198.09;5042896;28;20897;-80
2021/12/17 02:59:03;;;;;;;8.63;5.53;;;8.10;99.90;;;8.85;100.00;100196.22;5046654;28;20465;-80
2021/12/17 03:01:34;;;;;;;8.63;5.00;;;8.10;99.90;;;8.86;100.00;100190.03;5042545;28;20465;-80
2021/12/17 03:04:04;;;;;;;9.17;5.30;;;8.10;99.90;;;8.87;100.00;100189.06;5048747;28;20559;-79
2021/12/17 03:06:34;;;;;;;11.33;6.27;;;8.10;99.90;;;8.86;100.00;100187.41;5047505;28;20465;-80
2021/12/17 03:09:05;;;;;;;9.13;5.87;;;8.10;99.90;;;8.87;100.00;100186.47;5048166;28;20464;-80
2021/12/17 03:11:34;;;;;;;11.77;7.03;;;8.20;99.90;;;8.87;100.00;100183.88;5044960;28;20462;-80
2021/12/17 03:14:03;;;;;;;9.23;6.57;;;8.10;99.90;;;8.82;100.00;100191.22;5045743;28;20502;-80
2021/12/17 03:16:38;;;;;;;11.37;6.70;;;8.10;99.90;;;8.87;100.00;100189.06;5051009;28;20732;-80
2021/12/17 03:19:12;;;;;;;9.07;6.00;;;8.10;99.90;;;8.87;100.00;100186.47;5047940;28;20537;-79
2021/12/17 03:24:30;;;;;;;11.60;5.93;;;8.10;99.90;;;8.90;100.00;100188.81;5052876;28;20491;-80
2021/12/17 03:27:04;;;;;;;11.00;6.37;;;8.10;99.90;;;8.91;100.00;100195.72;5043398;28;20885;-80
2021/12/17 03:29:38;;;;;;;10.00;5.37;;;8.10;99.90;;;8.90;100.00;100187.06;5038013;28;20464;-79
2021/12/17 03:32:09;;;;;;;9.80;5.20;;;8.10;99.90;;;8.91;100.00;100190.50;5042047;28;21368;-80
2021/12/17 03:34:39;;;;;;;9.93;6.47;;;8.10;99.90;;;8.92;100.00;100187.75;5046796;28;20739;-80
2021/12/17 03:37:09;;;;;;;9.20;5.90;;;8.10;99.90;;;8.93;100.00;100192.03;5037866;28;20497;-80
2021/12/17 03:39:40;;;;;;;10.27;6.80;;;8.20;99.90;;;8.87;100.00;100189.06;5041794;28;20502;-80
2021/12/17 03:42:10;;;;;;;13.30;6.00;;;8.20;99.90;;;8.87;100.00;100189.06;5050515;28;20507;-80
2021/12/17 03:44:39;;;;;;;10.30;6.70;;;8.20;99.90;;;8.86;100.00;100190.84;5049507;28;20493;-80
2021/12/17 03:47:09;;;;;;;7.93;5.23;;;8.20;99.90;;;8.83;100.00;100185.06;5056477;28;20845;-80
2021/12/17 03:49:40;;;;;;;8.93;5.90;;;8.30;99.90;;;8.80;100.00;100183.53;5051185;28;20461;-80
2021/12/17 03:52:10;;;;;;;11.17;6.70;;;8.30;99.90;;;8.78;100.00;100190.63;5046146;28;20526;-80
2021/12/17 03:54:41;;;;;;;12.07;6.47;;;8.20;99.90;;;8.76;100.00;100189.09;5048284;28;20958;-80
2021/12/17 03:57:16;;;;;;;14.30;6.23;;;8.20;99.90;;;8.76;100.00;100196.94;5046503;28;20492;-80
2021/12/17 03:59:45;;;;;;;9.73;6.23;;;8.20;99.90;;;8.74;100.00;100198.84;5050449;28;20519;-80
2021/12/17 04:02:16;;;;;;;13.13;7.60;;;8.20;99.90;;;8.68;100.00;100189.72;5045007;28;20470;-80
2021/12/17 04:04:46;;;;;;;10.80;6.77;;;8.00;99.90;;;8.67;100.00;100182.84;5035474;28;20580;-80
2021/12/17 04:07:17;;;;;;;9.23;6.73;;;8.00;99.90;;;8.69;100.00;100174.91;5044269;28;20495;-80
2021/12/17 04:09:47;;;;;;;10.40;6.27;;;8.00;99.90;;;8.71;100.00;100181.63;5045007;28;20972;-80
2021/12/17 04:12:19;;;;;;;10.73;7.03;;;8.00;99.90;;;8.69;100.00;100178.34;5039012;28;20810;-80
2021/12/17 04:14:49;;;;;;;11.57;7.30;;;8.00;99.90;;;8.70;100.00;100189.59;5056293;28;20488;-80
2021/12/17 04:17:26;;;;;;;13.77;7.00;;;8.00;99.90;;;8.71;100.00;100179.03;5045347;28;20458;-80
2021/12/17 04:19:57;;;;;;;10.13;6.03;;;8.10;99.90;;;8.70;100.00;100181.78;5045895;28;20571;-80
2021/12/17 04:22:28;;;;;;;9.43;6.40;;;8.10;99.90;;;8.67;100.00;100187.25;5044202;28;20786;-80
2021/12/17 04:24:58;;;;;;;10.40;5.97;;;8.10;99.90;;;8.65;100.00;100192.56;5045740;28;20496;-80
2021/12/17 04:27:27;;;;;;;9.43;6.37;;;8.00;99.90;;;8.61;100.00;100182.53;5043219;28;20469;-80
2021/12/17 04:29:57;;;;;;;9.40;5.97;;;8.00;99.90;;;8.59;100.00;100191.28;5048309;28;20449;-80
2021/12/17 04:32:28;;;;;;;10.13;5.80;;;8.00;99.90;;;8.57;100.00;100179.31;5039022;28;20444;-80
2021/12/17 04:34:58;;;;;;;12.90;7.07;;;8.00;99.90;;;8.59;100.00;100180.84;5045935;28;20540;-80
2021/12/17 04:37:27;;;;;;;10.20;6.20;;;8.00;99.90;;;8.60;100.00;100181.69;5043232;28;20499;-79
2021/12/17 04:39:58;;;;;;;12.63;7.00;;;7.90;99.90;;;8.62;100.00;100171.94;5041928;28;22569;-80
2021/12/17 04:42:38;;;;;;;12.30;7.67;;;7.90;99.90;;;8.65;100.00;100186.50;5044215;28;20544;-80
2021/12/17 04:45:09;;;;;;;12.03;7.17;;;8.00;99.90;;;8.65;100.00;100173.47;5041819;28;20496;-80
2021/12/17 04:58:48;;;;;;;8.10;5.43;;;8.00;99.90;;;8.55;100.00;100179.44;5045422;28;20452;-80
2021/12/17 05:01:19;;;;;;;9.47;5.80;;;8.00;99.90;;;8.54;100.00;100171.72;5042842;28;20499;-80
2021/12/17 05:03:53;;;;;;;10.50;5.63;;;8.00;99.90;;;8.54;100.00;100176.94;5045961;28;20461;-80
2021/12/17 05:06:28;;;;;;;8.87;6.70;;;7.90;99.90;;;8.58;100.00;100171.38;5042966;28;22093;-80
2021/12/17 05:09:06;;;;;;;8.30;5.20;;;8.00;99.90;;;8.56;100.00;100183.72;5049441;28;20455;-80
2021/12/17 05:18:14;;;;;;;10.13;5.23;;;8.00;99.90;;;8.48;100.00;100177.44;5052501;28;20551;-79
2021/12/17 05:20:29;;;;;;;11.20;6.20;;;7.90;99.90;;;8.54;100.00;100164.72;5050867;28;20508;-80
2021/12/17 05:23:00;;;;;;;11.77;6.00;;;7.90;99.90;;;8.49;100.00;100168.66;5050559;28;20457;-80
2021/12/17 05:25:31;;;;;;;9.73;5.90;;;7.80;99.90;;;8.49;100.00;100179.09;5049196;28;20566;-80
2021/12/17 05:28:02;;;;;;;11.10;5.17;;;7.90;99.90;;;8.45;100.00;100173.28;5052704;28;20441;-80
2021/12/17 05:30:35;;;;;;;6.40;4.50;;;7.80;99.90;;;8.47;100.00;100175.75;5048568;28;20524;-79
2021/12/17 05:33:06;;;;;;;8.77;5.67;;;7.80;99.90;;;8.49;100.00;100169.50;5051074;28;20766;-79
2021/12/17 05:35:36;;;;;;;9.73;5.00;;;7.80;99.90;;;8.50;100.00;100176.34;5048551;28;20537;-79
2021/12/17 05:38:05;;;;;;;6.40;4.57;;;7.80;99.90;;;8.53;100.00;100168.31;5047353;28;20469;-80
2021/12/17 05:40:35;;;;;;;12.60;5.23;;;7.80;99.90;;;8.50;100.00;100176.34;5042810;28;20489;-81
2021/12/17 05:43:06;;;;;;;7.47;4.97;;;7.80;99.90;;;8.51;100.00;100183.22;5044468;28;21130;-80
2021/12/17 05:45:48;;;;;;;16.93;8.90;;;7.80;99.90;;;8.47;100.00;100176.59;5045124;28;20496;-80
2021/12/17 05:48:22;;;;;;;6.47;5.10;;;7.80;99.90;;;8.44;100.00;100179.44;5048617;28;20463;-80
2021/12/17 05:50:55;;;;;;;6.37;3.73;;;7.80;99.90;;;8.42;100.00;100183.13;5045233;28;20552;-80
2021/12/17 05:53:28;;;;;;;7.20;3.90;;;7.90;99.90;;;8.37;100.00;100190.47;5041392;28;20518;-80
2021/12/17 05:55:59;;;;;;;6.30;4.17;;;7.80;99.90;;;8.32;100.00;100193.47;5044919;28;20450;-80
2021/12/17 05:58:31;;;;;;;6.10;4.03;;;7.80;99.90;;;8.30;100.00;100187.50;5030618;28;20969;-80
2021/12/17 06:01:01;;;;;;;4.40;3.60;;;7.70;99.90;;;8.31;100.00;100186.56;5045467;28;20456;-80
2021/12/17 06:03:33;;;;;;;8.87;4.13;;;7.80;99.90;;;8.28;100.00;100189.44;5052590;28;20553;-80
2021/12/17 06:06:03;;;;;;;7.33;4.43;;;7.70;99.90;;;8.28;100.00;100184.22;5040160;28;20498;-80
2021/12/17 06:08:33;;;;;;;6.23;3.97;;;7.70;99.90;;;8.35;100.00;100187.16;5038771;28;20465;-80
2021/12/17 06:11:02;;;;;;;6.47;5.20;;;7.70;99.90;;;8.35;100.00;100182.78;5047757;28;20503;-80
2021/12/17 06:13:41;;;;;;;8.20;4.57;;;7.80;99.90;;;8.33;100.00;100179.44;5056349;28;20469;-80
2021/12/17 06:16:11;;;;;;;8.30;4.70;;;7.60;99.90;;;8.33;100.00;100176.84;5044483;28;20452;-80
2021/12/17 06:18:40;;;;;;;6.40;3.77;;;7.60;99.90;;;8.37;100.00;100172.22;5046012;28;20480;-80
2021/12/17 06:21:10;;;;;;;6.53;4.57;;;7.70;99.90;;;8.35;100.00;100169.75;5039429;28;20466;-81
2021/12/17 06:23:43;;;;;;;7.07;5.13;;;7.70;99.90;;;8.35;100.00;100169.75;5049925;28;20541;-81
2021/12/17 06:26:20;;;;;;;7.67;5.47;;;7.60;99.90;;;8.38;100.00;100166.91;5050907;28;20497;-81
2021/12/17 06:28:54;;;;;;;6.90;5.20;;;7.70;99.90;;;8.30;100.00;100169.28;5054576;28;20460;-80
2021/12/17 06:31:27;;;;;;;47.80;22.90;;;7.50;99.90;;;8.30;100.00;100179.69;5047958;28;20477;-80
2021/12/17 06:34:00;;;;;;;18.63;5.70;;;7.60;99.90;;;8.33;100.00;100183.88;5039815;28;20548;-80
2021/12/17 06:36:30;;;;;;;6.63;4.97;;;7.60;99.90;;;8.30;100.00;100184.06;5063208;28;20946;-80
2021/12/17 06:39:01;;;;;;;7.80;4.57;;;7.70;99.90;;;8.20;100.00;100178.72;5054541;28;20463;-80
2021/12/17 06:41:31;;;;;;;11.43;4.20;;;7.60;99.90;;;8.25;100.00;100183.59;5057599;28;20526;-80
2021/12/17 06:44:03;;;;;;;4.63;3.67;;;7.60;99.90;;;8.29;100.00;100191.09;5048009;28;20472;-80
2021/12/17 06:46:46;;;;;;;7.43;4.43;;;7.70;99.90;;;8.29;100.00;100185.88;5045868;28;20511;-80
2021/12/17 06:49:24;;;;;;;7.83;4.53;;;7.70;99.90;;;8.28;100.00;100186.81;5057885;28;20506;-80
2021/12/17 06:54:56;;;;;;;7.10;4.43;;;7.60;99.90;;;8.21;100.00;100192.59;5042464;28;20514;-80
2021/12/17 07:00:41;;;;;;;4.87;4.03;;;7.50;99.90;;;8.28;100.00;100201.59;5100004;27;20579;-80
2021/12/17 07:06:08;;;;;;;8.20;5.70;;;7.50;99.90;;;8.28;100.00;100206.81;5076282;28;20460;-80
2021/12/17 07:11:55;;;;;;;5.80;4.07;;;7.50;99.90;;;8.21;100.00;100198.63;5074330;28;20778;-80
2021/12/17 07:17:35;;;;;;;5.80;4.40;;;7.40;99.90;;;8.15;100.00;100219.13;5062249;28;20464;-79
2021/12/17 07:23:07;;;;;;;6.27;4.30;;;7.40;99.90;;;8.10;100.00;100224.69;5053974;28;20915;-80
2021/12/17 07:34:12;;;;;;;5.90;3.93;;;7.30;99.90;;;8.04;100.00;100226.00;5058366;28;20483;-83
2021/12/17 07:36:45;;;;;;;6.93;4.00;;;7.30;99.90;;;8.06;100.00;100228.47;5065482;28;20460;-82
2021/12/17 07:39:16;;;;;;;7.10;4.37;;;7.30;99.90;;;8.09;100.00;100246.47;5062731;28;20480;-82
2021/12/17 07:41:46;;;;;;;5.00;3.30;;;7.30;99.90;;;8.01;100.00;100251.44;5063014;28;20822;-80
2021/12/17 07:44:17;;;;;;;11.50;5.83;;;7.30;99.90;;;7.99;100.00;100248.13;5053186;28;20468;-81
2021/12/17 07:46:47;;;;;;;5.73;3.43;;;7.30;99.90;;;7.96;100.00;100243.13;5060469;28;20468;-81
2021/12/17 07:49:18;;;;;;;4.10;3.37;;;7.30;99.90;;;7.95;100.00;100254.50;5060057;28;20456;-81
2021/12/17 07:51:50;;;;;;;3.93;2.93;;;7.30;99.90;;;7.99;100.00;100256.75;5057362;28;20526;-81
2021/12/17 07:54:19;;;;;;;4.90;3.70;;;7.30;99.90;;;8.04;100.00;100256.44;5062389;28;20476;-80
2021/12/17 07:56:50;;;;;;;3.53;3.20;;;7.30;99.90;;;8.04;100.00;100257.25;5064021;28;20456;-80
2021/12/17 07:59:19;;;;;;;4.90;3.70;;;7.30;99.90;;;8.05;100.00;100253.69;5063784;28;20997;-81
2021/12/17 08:01:50;;;;;;;4.70;3.80;;;7.30;99.90;;;8.08;100.00;100258.69;5064423;28;20475;-82
2021/12/17 08:04:23;;;;;;;5.17;3.80;;;7.40;99.90;;;8.07;100.00;100257.03;5063930;28;20527;-82
2021/12/17 08:06:53;;;;;;;4.30;3.30;;;7.30;99.90;;;8.06;100.00;100257.13;5055565;28;21055;-82
2021/12/17 08:09:24;;;;;;;3.10;2.80;;;7.40;99.90;;;8.05;100.00;100252.88;5061490;28;21026;-82
2021/12/17 08:11:55;;;;;;;3.80;3.30;;;7.30;99.90;;;8.07;100.00;100251.81;5044038;28;20585;-83
2021/12/17 08:14:28;;;;;;;4.20;3.17;;;7.30;99.90;;;8.05;100.00;100253.69;5049356;28;20876;-82
2021/12/17 08:17:09;;;;;;;6.97;3.80;;;7.40;99.90;;;8.03;100.00;100247.78;5047944;28;20948;-82
2021/12/17 08:25:26;;;;;;;3.13;2.83;;;7.30;99.90;;;8.01;100.00;100231.44;5039997;28;20495;-82
2021/12/17 08:28:04;;;;;;;4.70;3.47;;;7.30;99.90;;;8.02;100.00;100242.66;5043641;28;20450;-83
2021/12/17 08:30:40;;;;;;;3.87;3.23;;;7.30;99.90;;;8.04;100.00;100235.59;5043273;28;20453;-81
2021/12/17 08:33:10;;;;;;;3.63;2.73;;;7.40;99.90;;;8.04;100.00;100230.38;5048099;28;20535;-81
2021/12/17 08:35:42;;;;;;;5.20;3.57;;;7.30;99.90;;;8.03;100.00;100226.94;5049329;28;20479;-83
2021/12/17 08:38:12;;;;;;;4.47;3.73;;;7.40;99.90;;;8.04;100.00;100225.16;5048908;28;20522;-83
2021/12/17 08:40:43;;;;;;;4.50;3.90;;;7.40;99.90;;;7.98;100.00;100230.84;5047283;28;20544;-83
2021/12/17 08:43:13;;;;;;;4.07;3.43;;;7.20;99.90;;;8.01;100.00;100225.41;5050903;28;20475;-83
2021/12/17 08:45:43;;;;;;;5.10;3.83;;;7.40;99.90;;;7.99;100.00;100230.72;5050084;28;20453;-81
2021/12/17 08:48:15;;;;;;;6.17;3.87;;;7.40;99.90;;;7.97;100.00;100229.19;5050423;28;20456;-80
2021/12/17 08:50:46;;;;;;;7.07;5.30;;;7.30;99.90;;;7.97;100.00;100234.38;5042094;28;20461;-82
2021/12/17 08:53:16;;;;;;;5.67;4.30;;;7.30;99.90;;;8.00;100.00;100239.34;5045657;28;20472;-82
2021/12/17 08:55:46;;;;;;;5.40;3.90;;;7.50;99.90;;;7.94;100.00;100242.44;5040530;28;20501;-82
2021/12/17 08:58:17;;;;;;;4.67;3.50;;;7.50;99.90;;;7.90;100.00;100238.41;5048086;28;20544;-82
2021/12/17 09:00:48;;;;;;;5.40;4.20;;;7.30;99.90;;;7.88;100.00;100245.50;5047723;28;21062;-82
2021/12/17 09:03:18;;;;;;;7.07;3.97;;;7.30;99.90;;;7.87;100.00;100246.44;5056598;28;20540;-82
2021/12/17 09:05:51;;;;;;;5.67;3.90;;;7.20;99.90;;;7.92;100.00;100252.13;5049905;28;20488;-82
2021/12/17 09:08:21;;;;;;;4.70;3.27;;;7.30;99.90;;;7.92;100.00;100257.34;5049682;28;20514;-82
2021/12/17 09:10:55;;;;;;;3.93;3.53;;;7.20;99.90;;;7.96;100.00;100262.22;5036934;28;20492;-82
2021/12/17 09:13:27;;;;;;;6.63;3.67;;;7.40;99.90;;;7.89;100.00;100268.81;5045350;28;20465;-82
2021/12/17 09:15:59;;;;;;;5.97;3.80;;;7.20;99.90;;;7.89;100.00;100275.81;5049818;28;20718;-82
2021/12/17 09:18:28;;;;;;;6.17;3.80;;;7.30;99.90;;;7.92;100.00;100270.34;5048469;28;20906;-82
2021/12/17 09:21:01;;;;;;;4.93;3.70;;;7.30;99.90;;;7.95;100.00;100281.38;5049506;28;20505;-83
2021/12/17 09:23:32;;;;;;;4.63;3.90;;;7.30;99.90;;;7.95;100.00;100283.16;5048865;28;20449;-84
2021/12/17 09:26:02;;;;;;;6.30;3.90;;;7.30;99.90;;;7.96;100.00;100279.59;5050052;28;20453;-82
2021/12/17 09:28:32;;;;;;;5.97;3.20;;;7.30;99.90;;;7.88;100.00;100276.78;5050117;28;20449;-82
2021/12/17 09:31:05;;;;;;;3.90;3.50;;;7.20;99.90;;;7.98;100.00;100277.75;5042723;28;20449;-82
2021/12/17 09:33:35;;;;;;;6.93;3.80;;;7.30;99.90;;;7.95;100.00;100285.75;5045604;28;20483;-82
2021/12/17 09:36:07;;;;;;;4.83;3.57;;;7.30;99.90;;;7.89;100.00;100287.06;5049638;28;20472;-82
2021/12/17 09:38:37;;;;;;;5.77;3.80;;;7.30;99.90;;;7.95;100.00;100283.16;5044177;28;20461;-82
2021/12/17 09:41:08;;;;;;;7.50;3.60;;;7.30;99.90;;;7.98;100.00;100298.56;5049517;28;20977;-82
2021/12/17 09:43:37;;;;;;;6.87;4.03;;;7.40;99.90;;;8.02;100.00;100299.97;5049427;28;20566;-82
2021/12/17 09:46:09;;;;;;;6.73;4.03;;;7.50;99.90;;;8.00;100.00;100294.06;5054012;28;20444;-82
2021/12/17 09:48:42;;;;;;;6.43;4.20;;;7.40;99.90;;;8.02;100.00;100287.78;5042389;28;20532;-83
2021/12/17 09:51:16;;;;;;;6.47;4.23;;;7.40;99.90;;;8.11;100.00;100288.88;5047719;28;20454;-82
2021/12/17 09:53:47;;;;;;;5.47;3.70;;;7.60;99.90;;;8.13;100.00;100293.97;5043491;28;20465;-82
2021/12/17 09:56:17;;;;;;;6.30;3.90;;;7.60;99.90;;;8.06;100.00;100298.81;5049372;28;20453;-81
2021/12/17 09:58:47;;;;;;;10.77;4.00;;;7.50;99.90;;;8.05;100.00;100305.78;5048536;28;20481;-81
2021/12/17 10:01:18;;;;;;;5.50;4.37;;;7.40;99.90;;;7.96;100.00;100310.88;5045361;28;20493;-81
2021/12/17 10:04:08;;;;;;;6.20;4.00;;;7.40;99.90;;;7.91;100.00;100297.38;5047368;28;20442;-81
2021/12/17 10:06:40;;;;;;;9.00;4.60;;;7.30;99.90;;;7.98;100.00;100311.59;5041755;28;20465;-81
2021/12/17 10:09:11;;;;;;;6.57;4.53;;;7.40;99.90;;;8.01;100.00;100299.19;5046569;28;20946;-81
2021/12/17 10:12:03;;;;;;;8.83;4.90;;;7.40;99.90;;;8.03;100.00;100309.47;5048576;28;20463;-81
2021/12/17 10:14:33;;;;;;;5.23;4.10;;;7.50;99.90;;;7.97;100.00;100302.94;5049055;28;21173;-82
2021/12/17 10:17:12;;;;;;;6.93;4.27;;;7.40;99.90;;;7.99;100.00;100302.81;5048789;28;20445;-81
2021/12/17 10:19:48;;;;;;;6.03;4.20;;;7.50;99.90;;;7.99;100.00;100290.63;5044560;28;20530;-82
2021/12/17 10:22:20;;;;;;;4.60;3.37;;;7.50;99.90;;;8.02;100.00;100290.41;5042970;28;20452;-81
2021/12/17 10:25:02;;;;;;;7.70;4.30;;;7.40;99.90;;;8.07;100.00;100295.28;5040393;28;20679;-81
2021/12/17 10:27:37;;;;;;;6.00;4.73;;;7.50;99.90;;;8.10;100.00;100287.22;5042521;28;20450;-82
2021/12/17 10:30:15;;;;;;;5.93;4.20;;;7.50;99.90;;;8.16;100.00;100286.75;5047622;28;20547;-82
2021/12/17 10:32:53;;;;;;;6.20;4.17;;;7.50;99.90;;;8.19;100.00;100286.50;5044183;28;20483;-82
2021/12/17 10:35:25;;;;;;;8.33;4.17;;;7.60;99.90;;;8.09;100.00;100290.75;5048556;28;20460;-82
2021/12/17 10:38:03;;;;;;;6.67;4.30;;;7.50;99.90;;;8.11;100.00;100291.50;5047528;28;20452;-82
2021/12/17 10:40:37;;;;;;;8.20;4.67;;;7.60;99.90;;;8.12;100.00;100285.34;5039774;28;20567;-82
2021/12/17 10:43:15;;;;;;;5.57;4.20;;;7.60;99.90;;;8.14;100.00;100283.44;5048417;28;20441;-82
2021/12/17 10:45:59;;;;;;;6.80;4.50;;;7.60;99.90;;;8.17;100.00;100287.59;5039935;28;20507;-82
2021/12/17 10:48:50;;;;;;;5.17;4.00;;;7.60;99.90;;;8.19;100.00;100289.13;5048464;28;20461;-82
2021/12/17 10:51:47;;;;;;;5.73;4.53;;;7.60;99.90;;;8.15;100.00;100273.84;5041513;28;20449;-82
2021/12/17 10:54:22;;;;;;;7.20;4.40;;;7.50;99.90;;;8.19;100.00;100275.28;5046560;28;20466;-82
2021/12/17 10:56:54;;;;;;;7.20;4.10;;;7.60;99.90;;;8.12;100.00;100274.91;5041862;28;20457;-82
2021/12/17 10:59:28;;;;;;;6.10;3.80;;;7.40;99.90;;;8.19;100.00;100265.66;5042021;28;21008;-82
2021/12/17 11:02:05;;;;;;;4.97;3.73;;;7.60;99.90;;;8.25;100.00;100269.59;5046159;28;20497;-82
2021/12/17 11:04:38;;;;;;;5.40;4.07;;;7.60;99.90;;;8.26;100.00;100274.66;5045267;28;20465;-82
2021/12/17 11:07:12;;;;;;;4.70;3.50;;;7.70;99.90;;;8.32;100.00;100270.81;5038930;28;20465;-81
2021/12/17 11:09:47;;;;;;;5.83;3.80;;;7.70;99.90;;;8.33;100.00;100273.28;5033338;28;20541;-81
2021/12/17 11:12:29;;;;;;;22.83;13.00;;;7.70;99.90;;;8.34;100.00;100280.16;5041436;28;20476;-81
2021/12/17 11:15:19;;;;;;;5.70;3.57;;;7.70;99.90;;;8.31;100.00;100290.00;5045706;28;20495;-81
2021/12/17 11:17:54;;;;;;;5.27;3.77;;;7.70;99.90;;;8.28;100.00;100292.81;5034946;28;20465;-81
2021/12/17 11:20:28;;;;;;;5.60;3.47;;;7.70;99.90;;;8.26;100.00;100287.69;5044249;28;20875;-81
2021/12/17 11:23:07;;;;;;;4.20;3.80;;;7.70;99.90;;;8.18;100.00;100276.22;5035378;28;20457;-81
2021/12/17 11:25:41;;;;;;;5.80;3.30;;;7.60;99.90;;;8.22;100.00;100270.66;5045117;28;20460;-81
2021/12/17 11:28:12;;;;;;;4.90;3.90;;;7.60;99.90;;;8.28;100.00;100265.00;5040620;28;20460;-81
2021/12/17 11:30:45;;;;;;;5.70;3.30;;;7.60;99.90;;;8.27;100.00;100252.88;5040073;28;20805;-81
2021/12/17 11:33:16;;;;;;;4.23;3.53;;;7.60;99.90;;;8.25;100.00;100260.00;5043717;28;20461;-81
2021/12/17 11:35:48;;;;;;;8.27;4.50;;;7.60;99.90;;;8.27;100.00;100250.28;5045679;28;20461;-81
2021/12/17 11:38:31;;;;;;;6.50;3.93;;;7.60;99.90;;;8.33;100.00;100243.81;5042072;28;20993;-79
2021/12/17 11:41:14;;;;;;;7.40;3.90;;;7.70;99.90;;;8.38;100.00;100233.84;5041868;28;20553;-80
2021/12/17 11:43:54;;;;;;;4.97;3.87;;;7.80;99.90;;;8.35;100.00;100240.13;5042166;28;20676;-80
2021/12/17 11:46:27;;;;;;;8.00;3.83;;;7.70;99.90;;;8.38;100.00;100246.88;5042097;28;21007;-80
2021/12/17 11:49:01;;;;;;;9.77;3.60;;;7.70;99.90;;;8.42;100.00;100236.09;5048770;28;20461;-80
2021/12/17 11:51:35;;;;;;;4.33;3.03;;;7.80;99.90;;;8.41;100.00;100234.44;5041885;28;20455;-80
2021/12/17 11:54:10;;;;;;;7.00;3.80;;;7.80;99.90;;;8.38;100.00;100234.69;5051076;28;20798;-80
2021/12/17 11:56:47;;;;;;;5.90;3.27;;;7.70;99.90;;;8.26;100.00;100240.78;5051290;28;20455;-79
2021/12/17 11:59:43;;;;;;;4.43;3.57;;;7.60;99.90;;;8.18;100.00;100237.13;5048763;28;20493;-80
2021/12/17 12:02:19;;;;;;;3.93;3.30;;;7.50;99.90;;;8.18;100.00;100234.53;5027320;28;21035;-80
2021/12/17 12:04:59;;;;;;;7.43;4.13;;;7.50;99.90;;;8.17;100.00;100235.47;5047394;28;20465;-80
2021/12/17 12:07:40;;;;;;;4.63;3.77;;;7.50;99.90;;;8.21;100.00;100227.31;5040427;28;20643;-80
2021/12/17 12:10:24;;;;;;;8.23;4.10;;;7.50;99.90;;;8.24;100.00;100227.06;5046920;28;20477;-80
2021/12/17 12:13:01;;;;;;;6.77;3.97;;;7.60;99.90;;;8.23;100.00;100219.34;5046359;28;20480;-81
2021/12/17 12:15:41;;;;;;;4.60;3.13;;;7.50;99.90;;;8.21;100.00;100219.47;5040590;28;20542;-80
2021/12/17 12:18:22;;;;;;;5.40;3.70;;;7.50;99.90;;;8.17;100.00;100220.66;5041720;28;20473;-81
2021/12/17 12:20:57;;;;;;;5.37;4.17;;;7.50;99.90;;;8.20;100.00;100220.41;5047260;28;20468;-80
2021/12/17 12:23:47;;;;;;;6.73;4.30;;;7.50;99.90;;;8.22;100.00;100221.16;5045276;28;21021;-80
2021/12/17 12:26:23;;;;;;;6.13;3.80;;;7.60;99.90;;;8.17;100.00;100228.47;5041700;28;20519;-81
2021/12/17 12:29:00;;;;;;;4.50;3.40;;;7.50;99.90;;;8.17;100.00;100235.47;5047097;28;20464;-80
2021/12/17 12:32:12;;;;;;;4.80;3.67;;;7.50;99.90;;;8.17;100.00;100238.06;5038464;28;20453;-80
2021/12/17 12:34:45;;;;;;;6.43;3.17;;;7.50;99.90;;;8.14;100.00;100239.16;5046767;28;20519;-80
2021/12/17 12:37:28;;;;;;;6.60;4.83;;;7.50;99.90;;;8.12;100.00;100227.19;5046393;28;20488;-81
2021/12/17 12:40:22;;;;;;;6.20;3.47;;;7.50;99.90;;;8.15;100.00;100226.94;5040361;28;20458;-81
2021/12/17 12:42:56;;;;;;;10.37;6.40;;;7.50;99.90;;;8.16;100.00;100226.81;5044870;28;20908;-81
2021/12/17 12:45:34;;;;;;;5.00;3.47;;;7.50;99.90;;;8.11;100.00;100228.97;5041227;28;20464;-82
2021/12/17 12:48:36;;;;;;;3.80;3.00;;;7.40;99.90;;;8.13;100.00;100232.25;5045362;28;21116;-81
2021/12/17 12:51:20;;;;;;;5.63;3.20;;;7.50;99.90;;;8.14;100.00;100225.28;5038192;28;21057;-81
2021/12/17 12:54:06;;;;;;;3.70;3.17;;;7.50;99.90;;;8.14;100.00;100230.50;5045179;28;20453;-81
2021/12/17 12:56:39;;;;;;;8.13;5.07;;;7.40;99.90;;;8.15;100.00;100232.16;5050115;28;20448;-81